Time;durP1;ratioP1;P1;durP2;ratioP2;P2;SDS_P1;SDS_P2;PMS_P1;PMS_P2;Temp;Humidity;BMP_temperature;BMP_pressure;BME280_temperature;BME280_humidity;BME280_pressure;Samples;Min_cycle;Max_cycle;Signal;HPM_P1;HPM_P2
2022/04/15 00:01:43;;;;;;;1.20;1.00;;;;;;;;;;4418084;32;20088;-67
2022/04/15 00:04:10;;;;;;;1.40;1.10;;;;;;;;;;4404805;32;20141;-67
2022/04/15 00:06:36;;;;;;;1.80;1.10;;;;;;;;;;4417163;32;20071;-66
2022/04/15 00:09:04;;;;;;;1.17;1.08;;;;;;;;;;4418889;32;20076;-65
2022/04/15 00:11:31;;;;;;;1.27;1.17;;;;;;;;;;4407944;32;20462;-66
2022/04/15 00:13:58;;;;;;;1.37;1.20;;;;;;;;;;4408692;32;20079;-66
2022/04/15 00:16:24;;;;;;;1.30;1.20;;;;;;;;;;4394645;32;20066;-67
2022/04/15 00:18:51;;;;;;;0.95;0.95;;;;;;;;;;4408757;32;20157;-67
2022/04/15 00:21:18;;;;;;;1.50;1.37;;;;;;;;;;4408341;32;20069;-66
2022/04/15 00:23:44;;;;;;;1.35;1.25;;;;;;;;;;4409237;32;20077;-66
2022/04/15 00:26:11;;;;;;;2.80;1.20;;;;;;;;;;4408521;32;20095;-66
2022/04/15 00:28:38;;;;;;;1.40;1.30;;;;;;;;;;4407131;32;20085;-67
2022/04/15 00:31:04;;;;;;;1.30;1.20;;;;;;;;;;4394272;32;20077;-66
2022/04/15 00:33:31;;;;;;;1.23;1.10;;;;;;;;;;4406686;32;20164;-66
2022/04/15 00:35:58;;;;;;;1.55;1.20;;;;;;;;;;4406869;32;20077;-66
2022/04/15 00:38:24;;;;;;;1.35;1.25;;;;;;;;;;4406951;32;20072;-67
2022/04/15 00:40:51;;;;;;;1.92;1.45;;;;;;;;;;4408328;32;20096;-66
2022/04/15 00:43:17;;;;;;;2.10;1.25;;;;;;;;;;4408573;32;20071;-67
2022/04/15 00:45:44;;;;;;;1.23;1.12;;;;;;;;;;4407375;32;20080;-67
2022/04/15 00:49:35;;;;;;;1.33;1.23;;;;;;;;;;3857411;37;20058;-66
2022/04/15 00:52:03;;;;;;;1.30;1.20;;;;;;;;;;4418875;32;20512;-67
2022/04/15 00:54:30;;;;;;;1.12;1.00;;;;;;;;;;4405659;32;20104;-66
2022/04/15 00:56:58;;;;;;;1.42;0.98;;;;;;;;;;4418314;32;20093;-66
2022/04/15 00:59:25;;;;;;;0.95;0.90;;;;;;;;;;4405663;32;20077;-67
2022/04/15 01:01:52;;;;;;;1.30;1.17;;;;;;;;;;4418328;32;20120;-66
2022/04/15 01:04:21;;;;;;;1.35;1.20;;;;;;;;;;4419777;32;20069;-67
2022/04/15 01:06:48;;;;;;;1.75;1.10;;;;;;;;;;4392952;32;20185;-67
2022/04/15 01:09:15;;;;;;;1.30;1.20;;;;;;;;;;4418074;32;20165;-67
2022/04/15 01:11:44;;;;;;;1.15;0.95;;;;;;;;;;4419684;32;20093;-67
2022/04/15 01:14:12;;;;;;;1.52;0.98;;;;;;;;;;4405189;32;20161;-67
2022/04/15 01:16:38;;;;;;;1.00;0.98;;;;;;;;;;4419508;32;20081;-67
2022/04/15 01:19:05;;;;;;;0.80;0.75;;;;;;;;;;4418121;32;20069;-67
2022/04/15 01:21:33;;;;;;;1.85;1.00;;;;;;;;;;4419492;32;20084;-67
2022/04/15 01:23:59;;;;;;;0.95;0.95;;;;;;;;;;4417995;32;20111;-66
2022/04/15 01:26:26;;;;;;;1.05;0.90;;;;;;;;;;4417988;32;20077;-66
2022/04/15 01:28:53;;;;;;;0.82;0.82;;;;;;;;;;4405262;32;20492;-66
2022/04/15 01:31:20;;;;;;;1.60;1.20;;;;;;;;;;4393130;32;20084;-67
2022/04/15 01:33:46;;;;;;;0.52;0.52;;;;;;;;;;4417997;32;20104;-67
2022/04/15 01:36:14;;;;;;;0.90;0.90;;;;;;;;;;4417546;32;20101;-66
2022/04/15 01:38:40;;;;;;;0.88;0.70;;;;;;;;;;4405240;32;20160;-67
2022/04/15 01:41:07;;;;;;;1.52;1.20;;;;;;;;;;4417776;32;20065;-67
2022/04/15 01:43:34;;;;;;;0.90;0.90;;;;;;;;;;4419245;32;20238;-66
2022/04/15 01:46:00;;;;;;;1.45;0.68;;;;;;;;;;4404642;32;20491;-67
2022/04/15 01:48:27;;;;;;;0.52;0.52;;;;;;;;;;4417819;32;20078;-67
2022/04/15 01:50:53;;;;;;;0.85;0.85;;;;;;;;;;4418862;32;20532;-66
2022/04/15 01:53:22;;;;;;;0.80;0.80;;;;;;;;;;4405344;32;20157;-67
2022/04/15 01:55:49;;;;;;;1.30;0.50;;;;;;;;;;4418297;32;20081;-67
2022/04/15 01:58:16;;;;;;;0.60;0.60;;;;;;;;;;4417536;32;20069;-68
2022/04/15 02:00:43;;;;;;;0.93;0.55;;;;;;;;;;4382709;32;20556;-66
2022/04/15 02:03:09;;;;;;;0.93;0.60;;;;;;;;;;4408512;32;20082;-68
2022/04/15 02:05:36;;;;;;;0.50;0.50;;;;;;;;;;4407227;32;20090;-66
2022/04/15 02:08:03;;;;;;;0.65;0.60;;;;;;;;;;4407437;32;20115;-67
2022/04/15 02:10:29;;;;;;;0.50;0.50;;;6.50;99.90;;;;;;4394634;32;20096;-68
2022/04/15 02:12:56;;;;;;;0.57;0.57;;;;;;;;;;4393440;32;20087;-69
2022/04/15 02:15:22;;;;;;;0.40;0.40;;;;;;;;;;4392091;32;20088;-67
2022/04/15 02:17:49;;;;;;;0.37;0.37;;;;;;;;;;4392051;32;20073;-67
2022/04/15 02:20:15;;;;;;;0.52;0.52;;;;;;;;;;4393301;32;20073;-67
2022/04/15 02:22:42;;;;;;;0.50;0.50;;;;;;;;;;4391880;32;20070;-67
2022/04/15 02:25:09;;;;;;;0.40;0.40;;;;;;;;;;4393468;32;20089;-67
2022/04/15 02:27:36;;;;;;;0.55;0.50;;;;;;;;;;4393454;32;20079;-66
2022/04/15 02:30:03;;;;;;;1.70;0.50;;;;;;;;;;4392092;32;20091;-67
2022/04/15 02:32:30;;;;;;;0.73;0.60;;;;;;;;;;4379020;32;20081;-68
2022/04/15 02:34:57;;;;;;;0.60;0.60;;;;;;;;;;4391789;32;20085;-67
2022/04/15 02:37:24;;;;;;;0.60;0.43;;;;;;;;;;4392956;32;20074;-66
2022/04/15 02:39:50;;;;;;;0.70;0.57;;;;;;;;;;4391298;32;20456;-67
2022/04/15 02:42:17;;;;;;;0.37;0.37;;;;;;;;;;4393207;32;20101;-66
2022/04/15 02:44:44;;;;;;;0.30;0.30;;;;;;;;;;4379040;32;20082;-67
2022/04/15 02:47:10;;;;;;;0.90;0.70;;;;;;;;;;4391348;32;20092;-68
2022/04/15 02:49:37;;;;;;;0.40;0.40;;;;;;;;;;4393325;32;20090;-67
2022/04/15 02:52:04;;;;;;;0.45;0.45;;;;;;;;;;4391119;32;20081;-68
2022/04/15 02:54:31;;;;;;;0.88;0.50;;;;;;;;;;4391364;32;20077;-66
2022/04/15 02:56:57;;;;;;;0.52;0.52;;;;;;;;;;4391300;32;20261;-68
2022/04/15 02:59:24;;;;;;;0.73;0.40;;;;;;;;;;4392504;32;20500;-68
2022/04/15 03:01:50;;;;;;;1.08;0.45;;;;;;;;;;4392876;32;20073;-66
2022/04/15 03:04:17;;;;;;;1.12;0.50;;;;;;;;;;4392764;32;20089;-66
2022/04/15 03:06:44;;;;;;;0.35;0.35;;;;;;;;;;4392792;32;20538;-68
2022/04/15 03:09:11;;;;;;;0.50;0.40;;;;;;;;;;4366641;32;20149;-66
2022/04/15 03:11:38;;;;;;;0.77;0.70;;;;;;;;;;4390125;32;20080;-66
2022/04/15 03:14:05;;;;;;;0.60;0.60;;;;;;;;;;4392299;32;20070;-65
2022/04/15 03:16:33;;;;;;;0.45;0.40;;;;;;;;;;4391086;32;20089;-67
2022/04/15 03:18:59;;;;;;;0.93;0.60;;;;;;;;;;4391449;32;20139;-67
2022/04/15 03:21:26;;;;;;;0.40;0.40;;;;;;;;;;4390925;32;20511;-67
2022/04/15 03:23:53;;;;;;;1.67;0.55;;;;;;;;;;4392607;32;20080;-67
2022/04/15 03:26:19;;;;;;;0.70;0.50;;;;;;;;;;4390837;32;20082;-66
2022/04/15 03:28:46;;;;;;;0.68;0.37;;;;;;;;;;4390834;32;20077;-66
2022/04/15 03:31:13;;;;;;;0.57;0.57;;;;;;;;;;4392280;32;20054;-67
2022/04/15 03:33:39;;;;;;;1.37;0.40;;;;;;;;;;4391658;32;20073;-65
2022/04/15 03:36:07;;;;;;;0.50;0.50;;;;;;;;;;4392363;32;20065;-67
2022/04/15 03:38:34;;;;;;;0.50;0.35;;;;;;;;;;4390856;32;20162;-66
2022/04/15 03:41:00;;;;;;;0.35;0.35;;;;;;;;;;4392134;32;20508;-67
2022/04/15 03:43:27;;;;;;;0.40;0.40;;;;;;;;;;4390907;32;20077;-66
2022/04/15 03:45:54;;;;;;;2.08;0.60;;;;;;;;;;4391128;32;20132;-66
2022/04/15 03:48:20;;;;;;;0.90;0.60;;;;;;;;;;4393282;32;20088;-66
2022/04/15 03:50:47;;;;;;;0.60;0.60;;;;;;;;;;4393735;32;20068;-66
2022/04/15 03:53:13;;;;;;;0.73;0.70;;;;;;;;;;4390738;32;20537;-66
2022/04/15 03:55:40;;;;;;;0.47;0.47;;;;;;;;;;4390556;32;20081;-67
2022/04/15 03:58:07;;;;;;;0.93;0.77;;;;;;;;;;4378540;32;20082;-65
2022/04/15 04:00:34;;;;;;;1.08;0.70;;;;;;;;;;4390837;32;20518;-67
2022/04/15 04:03:00;;;;;;;1.23;0.80;;;;;;;;;;4377945;32;20170;-66
2022/04/15 04:05:27;;;;;;;1.40;0.85;;;;;;;;;;4392070;32;20141;-66
2022/04/15 04:07:53;;;;;;;1.92;0.90;;;;;;;;;;4377581;32;20155;-66
2022/04/15 04:10:20;;;;;;;1.20;1.05;;;;;;;;;;4391653;32;20081;-66
2022/04/15 04:12:48;;;;;;;1.62;1.17;;;;;;;;;;4377580;32;20169;-66
2022/04/15 04:15:15;;;;;;;2.75;1.20;;;;;;;;;;4391476;32;20080;-67
2022/04/15 04:17:42;;;;;;;1.45;1.35;;;;;;;;;;4390239;32;20082;-66
2022/04/15 04:20:10;;;;;;;1.55;1.23;;;;;;;;;;4390345;32;20084;-67
2022/04/15 04:22:37;;;;;;;2.15;1.50;;;;;;;;;;4389893;32;20078;-67
2022/04/15 04:25:05;;;;;;;2.33;0.98;;;;;;;;;;4389797;32;20592;-67
2022/04/15 04:27:32;;;;;;;0.93;0.82;;;;;;;;;;4391489;32;20162;-67
2022/04/15 04:29:58;;;;;;;0.68;0.68;;;;;;;;;;4391838;32;20065;-66
2022/04/15 04:32:25;;;;;;;1.55;0.82;;;;;;;;;;4391303;32;20088;-66
2022/04/15 04:34:52;;;;;;;0.75;0.75;;;;;;;;;;4390100;32;20073;-67
2022/04/15 04:37:18;;;;;;;0.60;0.60;;;;;;;;;;4389976;32;20480;-66
2022/04/15 04:39:45;;;;;;;1.95;0.75;;;;;;;;;;4390475;32;20065;-66
2022/04/15 04:42:12;;;;;;;0.90;0.80;;;;;;;;;;4390066;32;20596;-65
2022/04/15 04:44:40;;;;;;;1.33;0.52;;;;;;;;;;4389669;32;20145;-66
2022/04/15 04:47:07;;;;;;;0.65;0.57;;;;;;;;;;4377173;32;20070;-66
2022/04/15 04:49:34;;;;;;;1.10;1.00;;;;;;;;;;4391780;32;20510;-66
2022/04/15 04:52:01;;;;;;;0.75;0.45;;;;;;;;;;4391798;32;20503;-66
2022/04/15 04:54:28;;;;;;;0.73;0.52;;;;;;;;;;4390078;32;20571;-66
2022/04/15 04:56:55;;;;;;;0.47;0.30;;;;;;;;;;4390361;32;20081;-66
2022/04/15 04:59:32;;;;;;;2.15;0.45;;;;;;;;;;4389729;32;20164;-66
2022/04/15 05:01:59;;;;;;;1.42;0.43;;;;;;;;;;4389788;32;20522;-66
2022/04/15 05:04:26;;;;;;;0.50;0.50;;;;;;;;;;4390295;32;20093;-66
2022/04/15 05:06:53;;;;;;;0.50;0.40;;;;;;;;;;4389957;32;20095;-66
2022/04/15 05:09:20;;;;;;;0.80;0.30;;;;;;;;;;4391507;32;20502;-66
2022/04/15 05:11:47;;;;;;;0.57;0.57;;;;;;;;;;4390361;32;20081;-65
2022/04/15 05:14:14;;;;;;;0.40;0.30;;;;;;;;;;4390210;32;20070;-66
2022/04/15 05:16:41;;;;;;;0.60;0.47;;;;;;;;;;4390965;32;20151;-66
2022/04/15 05:19:07;;;;;;;1.08;0.40;;;;;;;;;;4389421;32;20081;-66
2022/04/15 05:21:35;;;;;;;0.70;0.45;;;;;;;;;;4389793;32;20517;-66
2022/04/15 05:24:01;;;;;;;1.00;0.60;;;;;;;;;;4389532;32;20129;-67
2022/04/15 05:26:29;;;;;;;0.80;0.45;;;;;;;;;;4389487;32;20152;-67
2022/04/15 05:28:55;;;;;;;2.28;0.62;;;;;;;;;;4377062;32;20488;-66
2022/04/15 05:31:22;;;;;;;0.80;0.68;;;;;;;;;;4389491;32;20078;-65
2022/04/15 05:33:49;;;;;;;2.17;0.93;;;;;;;;;;4389423;32;20596;-67
2022/04/15 05:36:16;;;;;;;1.37;0.85;;;;;;;;;;4392310;32;20101;-66
2022/04/15 05:38:43;;;;;;;0.77;0.60;;;;;;;;;;4379523;32;20444;-66
2022/04/15 05:41:09;;;;;;;0.43;0.43;;;;;;;;;;4392779;32;20161;-67
2022/04/15 05:43:37;;;;;;;0.77;0.40;;;;;;;;;;4393736;32;20084;-65
2022/04/15 05:46:04;;;;;;;0.32;0.32;;;;;;;;;;4367374;32;20090;-66
2022/04/15 05:48:30;;;;;;;0.68;0.35;;;;;;;;;;4392999;32;20092;-65
2022/04/15 05:50:58;;;;;;;0.43;0.43;;;;;;;;;;4393445;32;20513;-66
2022/04/15 05:53:25;;;;;;;0.40;0.40;;;;;;;;;;4379694;32;20086;-66
2022/04/15 05:55:52;;;;;;;0.85;0.85;;;;;;;;;;4379343;32;20077;-66
2022/04/15 05:58:18;;;;;;;0.40;0.40;;;;;;;;;;4391843;32;20119;-67
2022/04/15 06:00:46;;;;;;;0.25;0.25;;;;;;;;;;4393312;32;20074;-66
2022/04/15 06:03:12;;;;;;;0.68;0.40;;;;;;;;;;4392214;32;20096;-66
2022/04/15 06:05:39;;;;;;;0.20;0.20;;;;;;;;;;4393536;32;20081;-67
2022/04/15 06:08:06;;;;;;;0.88;0.40;;;;;;;;;;4393765;32;20164;-66
2022/04/15 06:10:33;;;;;;;0.40;0.20;;;;;;;;;;4393229;32;20444;-66
2022/04/15 06:13:19;;;;;;;0.25;0.25;;;;;;;;;;4393289;32;20098;-65
2022/04/15 06:15:58;;;;;;;0.52;0.52;;;;;;;;;;4393348;32;20104;-67
2022/04/15 06:18:29;;;;;;;0.77;0.75;;;;;;;;;;4391850;32;20456;-66
2022/04/15 06:20:55;;;;;;;1.02;0.50;;;;;;;;;;4379659;32;20153;-66
2022/04/15 06:23:22;;;;;;;0.30;0.30;;;;;;;;;;4379668;32;20157;-66
2022/04/15 06:25:48;;;;;;;0.37;0.37;;;;;;;;;;4391741;32;20096;-66
2022/04/15 06:28:16;;;;;;;0.30;0.30;;;;;;;;;;4391287;32;20077;-65
2022/04/15 06:30:43;;;;;;;1.85;0.40;;;;;;;;;;4391663;32;20077;-66
2022/04/15 06:33:09;;;;;;;0.85;0.85;;;;;;;;;;4393057;32;20162;-66
2022/04/15 06:35:36;;;;;;;0.37;0.20;;;;;;;;;;4393102;32;20076;-67
2022/04/15 06:38:03;;;;;;;0.85;0.37;;;;;;;;;;4392070;32;20473;-66
2022/04/15 06:40:30;;;;;;;0.20;0.20;;;;;;;;;;4392992;32;20066;-65
2022/04/15 06:42:57;;;;;;;0.43;0.32;;;;;;;;;;4379415;32;20086;-65
2022/04/15 06:45:24;;;;;;;0.35;0.13;;;;;;;;;;4392791;32;20173;-66
2022/04/15 06:47:50;;;;;;;0.88;0.25;;;;;;;;;;4390787;32;20082;-66
2022/04/15 06:50:17;;;;;;;1.08;0.35;;;;;;;;;;4379060;32;20087;-66
2022/04/15 06:52:44;;;;;;;0.70;0.50;;;;;;;;;;4391315;32;20148;-66
2022/04/15 06:55:10;;;;;;;0.50;0.50;;;;;;;;;;4391033;32;20158;-65
2022/04/15 06:57:37;;;;;;;1.12;0.62;;;;;;;;;;4393001;32;20101;-67
2022/04/15 07:00:05;;;;;;;0.52;0.30;;;;;;;;;;4391989;32;20070;-67
2022/04/15 07:02:34;;;;;;;0.32;0.32;;;;;;;;;;4391135;32;20062;-65
2022/04/15 07:05:00;;;;;;;0.43;0.37;;;;;;;;;;4378987;32;20086;-67
2022/04/15 07:07:27;;;;;;;0.37;0.30;;;;;;;;;;4390831;32;20150;-66
2022/04/15 07:09:54;;;;;;;0.95;0.60;;;;;;;;;;4390870;32;20108;-65
2022/04/15 07:12:20;;;;;;;0.32;0.30;;;;;;;;;;4392293;32;20520;-66
2022/04/15 07:14:47;;;;;;;0.40;0.20;;;;;;;;;;4392486;32;20165;-67
2022/04/15 07:17:13;;;;;;;0.30;0.25;;;;;;;;;;4391007;32;20202;-66
2022/04/15 07:19:40;;;;;;;0.15;0.15;;;;;;;;;;4392459;32;20164;-66
2022/04/15 07:22:07;;;;;;;0.68;0.50;;;;;;;;;;4366320;32;20092;-66
2022/04/15 07:24:34;;;;;;;0.40;0.40;;;;;;;;;;4391131;32;20515;-66
2022/04/15 07:27:01;;;;;;;1.67;1.30;;;;;;;;;;4390730;32;20065;-65
2022/04/15 07:29:30;;;;;;;1.45;0.80;;;;;;;;;;4390680;32;20596;-65
2022/04/15 07:31:57;;;;;;;1.27;0.95;;;;;;;;;;4391935;32;20239;-66
2022/04/15 07:34:26;;;;;;;0.30;0.30;;;;;;;;;;4390696;32;20155;-67
2022/04/15 07:36:57;;;;;;;0.40;0.37;;;;;;;;;;4377919;32;20166;-66
2022/04/15 07:39:24;;;;;;;0.40;0.40;;;;;;;;;;4392605;32;20147;-66
2022/04/15 07:41:52;;;;;;;0.60;0.60;;;;;;;;;;4391952;32;20470;-67
2022/04/15 07:44:19;;;;;;;0.80;0.70;;;;;;;;;;4390762;32;20088;-66
2022/04/15 07:46:46;;;;;;;0.60;0.60;;;;;;;;;;4391933;32;20097;-66
2022/04/15 07:49:13;;;;;;;0.68;0.57;;;;;;;;;;4378259;32;20078;-65
2022/04/15 07:51:40;;;;;;;0.68;0.68;;;;;;;;;;4390238;32;20077;-66
2022/04/15 07:54:08;;;;;;;0.60;0.57;;;;;;;;;;4391915;32;20072;-66
2022/04/15 07:56:35;;;;;;;0.80;0.62;;;;;;;;;;4390356;32;20096;-67
2022/04/15 07:59:02;;;;;;;0.85;0.75;;;;;;;;;;4390432;32;20081;-67
2022/04/15 08:01:28;;;;;;;0.75;0.70;;;;;;;;;;4390329;32;20112;-67
2022/04/15 08:06:30;;;;;;;0.82;0.57;;;;;;;;;;3857344;37;20424;-66
2022/04/15 08:08:57;;;;;;;1.05;0.70;;;;;;;;;;4418129;32;20157;-65
2022/04/15 08:11:25;;;;;;;1.02;0.80;;;;;;;;;;4406166;32;20092;-66
2022/04/15 08:13:52;;;;;;;1.17;1.10;;;;;;;;;;4418043;32;20066;-66
2022/04/15 08:16:20;;;;;;;1.23;1.10;;;;;;;;;;4418327;32;20497;-66
2022/04/15 08:18:49;;;;;;;0.93;0.90;;;;;;;;;;4418107;32;20156;-66
2022/04/15 08:21:16;;;;;;;1.12;1.00;;;;;;;;;;4418344;32;20069;-65
2022/04/15 08:23:43;;;;;;;1.75;1.00;;;;;;;;;;4405531;32;20152;-66
2022/04/15 08:26:11;;;;;;;2.42;0.90;;;;;;;;;;4418462;32;20077;-67
2022/04/15 08:28:38;;;;;;;2.60;1.20;;;;;;;;;;4405253;32;20095;-65
2022/04/15 08:31:05;;;;;;;1.20;1.10;;;;;;;;;;4406998;32;20186;-65
2022/04/15 08:33:31;;;;;;;1.35;1.10;;;;;;;;;;4405218;32;20496;-65
2022/04/15 08:35:58;;;;;;;1.33;1.00;;;;;;;;;;4405367;32;20169;-66
2022/04/15 08:38:25;;;;;;;2.20;0.90;;;;;;;;;;4419525;32;20073;-66
2022/04/15 08:40:56;;;;;;;1.92;1.27;;;;;;;;;;4392187;32;20548;-66
2022/04/15 08:43:25;;;;;;;1.60;1.33;;;;;;;;;;4405225;32;20093;-66
2022/04/15 08:45:52;;;;;;;2.42;1.48;;;;;;;;;;4405464;32;20070;-66
2022/04/15 08:48:19;;;;;;;1.50;1.30;;;;;;;;;;4392956;32;20081;-67
2022/04/15 08:50:46;;;;;;;1.62;1.12;;;;;;;;;;4405156;32;20079;-66
2022/04/15 08:53:14;;;;;;;1.67;1.40;;;;;;;;;;4417947;32;20174;-67
2022/04/15 08:55:41;;;;;;;1.85;1.33;;;;;;;;;;4417418;32;20137;-65
2022/04/15 08:58:08;;;;;;;1.87;1.58;;;;;;;;;;4405862;32;20428;-66
2022/04/15 09:00:35;;;;;;;2.17;1.60;;;;;;;;;;4419084;32;20086;-66
2022/04/15 09:03:03;;;;;;;1.90;1.50;;;;;;;;;;4417533;32;20510;-65
2022/04/15 09:05:30;;;;;;;2.78;1.67;;;;;;;;;;4417291;32;20092;-66
2022/04/15 09:08:04;;;;;;;1.87;1.37;;;;;;;;;;4392588;32;20082;-65
2022/04/15 09:10:33;;;;;;;1.37;1.27;;;;;;;;;;4418823;32;20156;-66
2022/04/15 09:13:01;;;;;;;1.92;1.45;;;;;;;;;;4405689;32;20072;-67
2022/04/15 09:15:28;;;;;;;1.73;1.30;;;;;;;;;;4417674;32;20080;-67
2022/04/15 09:17:55;;;;;;;1.65;1.30;;;;;;;;;;4394479;32;20556;-67
2022/04/15 09:20:23;;;;;;;1.73;1.45;;;;;;;;;;4408652;32;20471;-66
2022/04/15 09:22:56;;;;;;;2.62;1.52;;;;;;;;;;4407788;32;20141;-66
2022/04/15 09:25:27;;;;;;;3.28;1.80;;;;;;;;;;4382202;32;20524;-66
2022/04/15 09:27:58;;;;;;;1.60;1.40;;;;;;;;;;4407466;32;20089;-67
2022/04/15 09:30:41;;;;;;;1.42;1.23;;;;;;;;;;4382418;32;20073;-66
2022/04/15 09:33:11;;;;;;;1.92;1.40;;;;;;;;;;4396881;32;20066;-67
2022/04/15 09:35:42;;;;;;;3.62;1.75;;;;;;;;;;4397280;32;20065;-66
2022/04/15 09:38:08;;;;;;;1.48;1.37;;;;;;;;;;4399101;32;20082;-67
2022/04/15 09:40:36;;;;;;;2.45;1.60;;;;;;;;;;4412991;32;20062;-67
2022/04/15 09:43:04;;;;;;;2.28;1.83;;;;;;;;;;4399367;32;20069;-67
2022/04/15 09:45:36;;;;;;;2.97;1.77;;;;;;;;;;4398878;32;20157;-66
2022/04/15 09:48:11;;;;;;;2.47;1.67;;;;;;;;;;4397978;32;20475;-67
2022/04/15 09:50:42;;;;;;;2.03;1.50;;;;;;;;;;4409855;32;20233;-66
2022/04/15 09:53:14;;;;;;;2.35;1.23;;;;;;;;;;4395202;32;20507;-66
2022/04/15 09:55:47;;;;;;;2.12;1.50;;;4.80;99.90;;;;;;4409143;32;20094;-76
2022/04/15 09:58:15;;;;;;;4.50;3.22;;;;;;;;;;4382832;32;20069;-71
2022/04/15 10:00:48;;;;;;;2.50;1.73;;;;;;;;;;4380340;32;20166;-65
2022/04/15 10:03:26;;;;;;;2.53;1.55;;;;;;;;;;4355066;32;20462;-66
2022/04/15 10:05:57;;;;;;;2.60;1.40;;;;;;;;;;4377058;32;20074;-66
2022/04/15 10:08:25;;;;;;;1.92;1.60;;;;;;;;;;4364691;32;20539;-68
2022/04/15 10:10:54;;;;;;;3.22;1.40;;;;;;;;;;4387616;32;20178;-67
2022/04/15 10:13:26;;;;;;;1.67;1.30;;;;;;;;;;4378659;32;20538;-71
2022/04/15 10:15:53;;;;;;;1.20;1.05;;;;;;;;;;4379572;32;20082;-69
2022/04/15 10:18:22;;;;;;;2.28;1.50;;;;;;;;;;4387659;32;20074;-67
2022/04/15 10:20:51;;;;;;;2.40;1.35;;;;;;;;;;4378573;32;20100;-68
2022/04/15 10:23:18;;;;;;;1.62;1.23;;;;;;;;;;4374802;32;20728;-66
2022/04/15 10:25:46;;;;;;;1.12;1.02;;;;;;;;;;4379828;32;20073;-68
2022/04/15 10:28:18;;;;;;;1.65;1.40;;;;;;;;;;4375020;32;20089;-69
2022/04/15 10:31:11;;;;;;;2.28;1.42;;;;;;;;;;4363549;32;20094;-69
2022/04/15 10:33:42;;;;;;;2.00;1.27;;;;;;;;;;4370090;32;20081;-69
2022/04/15 10:36:26;;;;;;;1.80;1.30;;;;;;;;;;4376075;32;20077;-70
2022/04/15 10:39:09;;;;;;;2.47;1.20;;;;;;;;;;4377478;32;20149;-67
2022/04/15 10:41:42;;;;;;;1.60;1.45;;;;;;;;;;4379461;32;20070;-67
2022/04/15 10:44:14;;;;;;;2.47;1.50;;;;;;;;;;4385312;32;20143;-67
2022/04/15 10:46:41;;;;;;;1.83;1.37;;;;;;;;;;4380448;32;20074;-67
2022/04/15 10:49:29;;;;;;;1.90;1.45;;;;;;;;;;4375801;32;20074;-69
2022/04/15 10:52:01;;;;;;;1.52;1.00;;;;;;;;;;4370978;32;20066;-67
2022/04/15 10:54:38;;;;;;;3.22;1.50;;;;;;;;;;4370251;32;20095;-71
2022/04/15 10:57:14;;;;;;;2.08;1.27;;;;;;;;;;4377914;32;20090;-71
2022/04/15 11:02:50;;;;;;;2.65;1.33;;;;;;;;;;4377173;32;20081;-66
2022/04/15 11:05:52;;;;;;;2.75;1.60;;;;;;;;;;4382027;32;20085;-66
2022/04/15 11:08:21;;;;;;;2.53;1.35;;;;;;;;;;4372499;32;20077;-69
2022/04/15 11:10:57;;;;;;;1.62;1.27;;;;;;;;;;4372936;32;20133;-67
2022/04/15 11:13:30;;;;;;;1.77;1.40;;;;;;;;;;4377140;32;20510;-69
2022/04/15 11:16:11;;;;;;;1.58;1.30;;;;;;;;;;4379229;32;20101;-69
2022/04/15 11:19:00;;;;;;;3.12;1.50;;;;;;;;;;4375311;32;20448;-69
2022/04/15 11:21:37;;;;;;;1.77;1.05;;;;;;;;;;4364210;32;20066;-67
2022/04/15 11:24:16;;;;;;;2.10;1.27;;;;;;;;;;4362135;32;20208;-70
2022/04/15 11:26:44;;;;;;;1.20;1.10;;;;;;;;;;4363104;32;20069;-67
2022/04/15 11:29:12;;;;;;;1.70;1.20;;;;;;;;;;4375967;32;20104;-69
2022/04/15 11:31:49;;;;;;;1.40;1.30;;;;;;;;;;4366619;32;20093;-67
2022/04/15 11:34:17;;;;;;;1.50;1.23;;;;;;;;;;4383527;32;20066;-68
2022/04/15 11:36:45;;;;;;;2.65;1.48;;;;;;;;;;4375391;32;20108;-66
2022/04/15 11:39:14;;;;;;;1.00;0.95;;;;;;;;;;4352131;32;20837;-66
2022/04/15 11:41:54;;;;;;;1.30;1.17;;;;;;;;;;4367908;32;20259;-68
2022/04/15 11:44:21;;;;;;;1.50;1.20;;;;;;;;;;4371364;32;20082;-67
2022/04/15 11:46:52;;;;;;;1.50;1.00;;;;;;;;;;4364842;32;20070;-69
2022/04/15 11:49:27;;;;;;;1.70;1.15;;;;;;;;;;4382060;32;20522;-68
2022/04/15 11:52:00;;;;;;;2.78;1.40;;;;;;;;;;4376199;32;20086;-71
2022/04/15 11:54:35;;;;;;;1.20;1.10;;;;;;;;;;4370227;32;20112;-68
2022/04/15 11:57:06;;;;;;;1.95;1.73;;;;;;;;;;4376988;32;20058;-70
2022/04/15 11:59:40;;;;;;;2.08;1.00;;;;;;;;;;4374623;32;20078;-70
2022/04/15 12:02:07;;;;;;;2.92;1.40;;;;;;;;;;4369886;32;20059;-69
2022/04/15 12:04:34;;;;;;;1.98;1.10;;;;;;;;;;4366501;32;20283;-74
2022/04/15 12:07:01;;;;;;;1.33;1.23;;;;;;;;;;4366777;32;20121;-74
2022/04/15 12:09:27;;;;;;;1.92;1.52;;;;;;;;;;4370331;32;20079;-71
2022/04/15 12:11:54;;;;;;;2.55;1.62;;;;;;;;;;4376283;32;20532;-73
2022/04/15 12:14:21;;;;;;;2.08;1.60;;;;;;;;;;4357004;32;20121;-69
2022/04/15 12:16:48;;;;;;;2.97;1.85;;;;;;;;;;4374271;32;20105;-72
2022/04/15 12:19:16;;;;;;;2.55;1.83;;;;;;;;;;4383804;32;20128;-71
2022/04/15 12:21:43;;;;;;;3.85;1.60;;;;;;;;;;4369577;32;20581;-68
2022/04/15 12:24:11;;;;;;;4.03;1.67;;;;;;;;;;4358506;32;20097;-66
2022/04/15 12:26:46;;;;;;;3.62;2.20;;;;;;;;;;4367027;32;20105;-66
2022/04/15 12:32:21;;;;;;;2.47;1.45;;;;;;;;;;4372049;32;20816;-68
2022/04/15 12:35:12;;;;;;;3.50;1.40;;;;;;;;;;4382900;32;20543;-67
2022/04/15 12:37:49;;;;;;;3.37;1.70;;;;;;;;;;4372226;32;20156;-64
2022/04/15 12:40:15;;;;;;;;;;;;;;;;;;4369309;32;20098;-65
2022/04/15 12:42:46;;;;;;;2.25;1.70;;;;;;;;;;4391027;32;20081;-66
2022/04/15 12:45:17;;;;;;;3.62;1.90;;;;;;;;;;4370177;32;20188;-64
2022/04/15 12:47:57;;;;;;;3.15;1.80;;;;;;;;;;4359743;32;20138;-66
2022/04/15 12:50:31;;;;;;;2.40;1.80;;;;;;;;;;4369873;32;20078;-65
2022/04/15 12:52:58;;;;;;;2.87;1.90;;;;;;;;;;4365420;32;20085;-65
2022/04/15 12:55:33;;;;;;;4.20;1.83;;;;;;;;;;4384234;32;20497;-65
2022/04/15 12:58:02;;;;;;;2.67;1.83;;;;;;;;;;4393531;32;20084;-67
2022/04/15 13:00:29;;;;;;;2.72;2.00;;;;;;;;;;4381024;32;20082;-67
2022/04/15 13:02:56;;;;;;;3.97;2.10;;;;;;;;;;4392612;32;20060;-67
2022/04/15 13:05:24;;;;;;;3.10;1.98;;;;;;;;;;4391841;32;20089;-66
2022/04/15 13:07:50;;;;;;;4.37;1.92;;;;;;;;;;4386400;32;20083;-67
2022/04/15 13:10:18;;;;;;;4.03;1.80;;;;;;;;;;4378362;32;20097;-66
2022/04/15 13:12:44;;;;;;;2.17;1.62;;;;;;;;;;4364843;32;20148;-67
2022/04/15 13:15:13;;;;;;;3.37;2.20;;;;;;;;;;4389756;32;20072;-66
2022/04/15 13:17:40;;;;;;;2.20;2.00;;;;;;;;;;4377139;32;20082;-68
2022/04/15 13:20:09;;;;;;;3.17;2.00;;;;;;;;;;4365484;32;20080;-65
2022/04/15 13:22:36;;;;;;;5.82;2.37;;;;;;;;;;4376005;32;20085;-67
2022/04/15 13:25:03;;;;;;;3.83;2.25;;;;;;;;;;4376646;32;20081;-68
2022/04/15 13:27:30;;;;;;;5.57;2.10;;;;;;;;;;4376839;32;20504;-66
2022/04/15 13:29:58;;;;;;;1.90;1.58;;;;;;;;;;4382065;32;20125;-67
2022/04/15 13:32:25;;;;;;;2.00;1.80;;;;;;;;;;4372343;32;20074;-68
2022/04/15 13:34:52;;;;;;;4.95;2.08;;;;;;;;;;4372107;32;20085;-69
2022/04/15 13:37:19;;;;;;;3.08;2.00;;;;;;;;;;4364070;32;20121;-68
2022/04/15 13:39:47;;;;;;;6.12;2.35;;;;;;;;;;4366075;32;20074;-69
2022/04/15 13:42:14;;;;;;;4.28;2.35;;;;;;;;;;4377777;32;20463;-67
2022/04/15 13:44:40;;;;;;;6.30;2.83;;;;;;;;;;4383650;32;20081;-69
2022/04/15 13:47:07;;;;;;;7.80;3.10;;;;;;;;;;4388025;32;20073;-68
2022/04/15 13:49:34;;;;;;;5.43;3.20;;;;;;;;;;4376039;32;20146;-67
2022/04/15 13:52:01;;;;;;;7.57;3.58;;;;;;;;;;4363932;32;20541;-66
2022/04/15 13:57:13;;;;;;;5.72;2.87;;;;;;;;;;4389245;32;20116;-67
2022/04/15 13:59:40;;;;;;;7.07;3.35;;;;;;;;;;4375255;32;20133;-67
2022/04/15 14:02:07;;;;;;;5.55;3.12;;;;;;;;;;4387585;32;20072;-71
2022/04/15 14:04:35;;;;;;;7.18;2.83;;;;;;;;;;4371506;32;20504;-67
2022/04/15 14:07:02;;;;;;;4.62;2.65;;;;;;;;;;4370543;32;20155;-65
2022/04/15 14:09:28;;;;;;;4.93;2.50;;;;;;;;;;4359203;32;20169;-68
2022/04/15 14:11:55;;;;;;;4.15;2.50;;;;;;;;;;4366686;32;20125;-69
2022/04/15 14:14:21;;;;;;;4.78;2.45;;;;;;;;;;4376080;32;20157;-66
2022/04/15 14:16:48;;;;;;;4.03;2.20;;;;;;;;;;4384743;32;20516;-67
2022/04/15 14:19:15;;;;;;;4.62;2.05;;;;;;;;;;4376213;32;20726;-66
2022/04/15 14:21:42;;;;;;;4.57;1.98;;;;;;;;;;4373840;32;20112;-66
2022/04/15 14:24:09;;;;;;;7.28;2.90;;;;;;;;;;4368071;32;20549;-65
2022/04/15 14:26:36;;;;;;;7.87;3.50;;;;;;;;;;4346969;32;20184;-70
2022/04/15 14:29:03;;;;;;;4.53;2.55;;;;;;;;;;4372294;32;20116;-69
2022/04/15 14:31:30;;;;;;;7.97;2.80;;;;;;;;;;4375824;32;20109;-66
2022/04/15 14:33:57;;;;;;;8.95;3.37;;;;;;;;;;4352488;32;20078;-66
2022/04/15 14:36:24;;;;;;;6.12;3.22;;;;;;;;;;4378883;32;20149;-67
2022/04/15 14:38:52;;;;;;;5.10;3.10;;;;;;;;;;4383960;32;20154;-68
2022/04/15 14:41:19;;;;;;;5.45;2.53;;;;;;;;;;4364317;32;20066;-68
2022/04/15 14:43:46;;;;;;;6.95;2.85;;;;;;;;;;4387004;32;20070;-67
2022/04/15 14:46:12;;;;;;;5.43;2.33;;;;;;;;;;4380042;32;20129;-68
2022/04/15 14:48:41;;;;;;;4.90;2.40;;;;;;;;;;4371730;32;20101;-66
2022/04/15 14:51:08;;;;;;;7.87;2.50;;;;;;;;;;4380101;32;20089;-70
2022/04/15 14:53:36;;;;;;;6.53;2.90;;;;;;;;;;4371294;32;20066;-69
2022/04/15 14:56:04;;;;;;;4.75;2.75;;;;;;;;;;4367935;32;20151;-67
2022/04/15 14:58:31;;;;;;;6.35;2.60;;;;;;;;;;4384051;32;20448;-67
2022/04/15 15:00:58;;;;;;;5.78;3.03;;;;;;;;;;4370796;32;20782;-70
2022/04/15 15:03:25;;;;;;;6.70;2.78;;;;;;;;;;4378272;32;20169;-68